Home > Products > Valid Products > TAF

000
FTUS45 KFGZ 080541 CCA
TAFINW
TAF COR
KINW 080541Z 0806/0906 VRB06KT P6SM SCT120
     FM081700 24015G24KT P6SM FEW060 SCT090
     FM090400 21010KT P6SM FEW110=



000
FTUS45 KFGZ 080540
TAFINW
TAF
KINW 080540Z 0806/0906 26008KT P6SM SCT120
     FM081700 24015G24KT P6SM FEW060 SCT090
     FM090400 21010KT P6SM FEW110=



000
FTUS45 KFGZ 080540
TAFFLG
TAF
KFLG 080540Z 0806/0906 VRB03KT P6SM FEW110
     FM081800 22014G22KT P6SM FEW060 BKN100
     FM090300 VRB05KT P6SM FEW110=



000
FTUS45 KFGZ 080540
TAFPGA
TAF
KPGA 080540Z 0806/0906 VRB06KT P6SM FEW150
      TEMPO 0823/0903 22011G18KT=



000
FTUS45 KFGZ 072340
TAFINW
TAF
KINW 072340Z 0800/0824 25013KT P6SM SCT110
      TEMPO 0800/0802 VRB20G30KT TSRA BKN100CB
     FM080300 26008KT P6SM FEW120
     FM081700 28009KT P6SM SCT090=



000
FTUS45 KFGZ 072340
TAFPGA
TAF
KPGA 072340Z 0800/0824 VRB03KT P6SM BKN150
     FM080300 VRB03KT P6SM FEW150=



000
FTUS45 KFGZ 072340
TAFINW
TAF
KINW 072340Z 0800/0824 25013KT P6SM SCT110
      TEMPO 0800/0802 VRB20G30KT TSRA BKN100CB
     FM080300 26008KT P6SM FEW120
     FM081700 28009KT P6SM SCT090=



000
FTUS45 KFGZ 072340
TAFFLG
TAF
KFLG 072340Z 0800/0824 23010KT P6SM VCTS SCT100CB
      TEMPO 0800/0802 5SM -TSRA FEW045 BKN080CB
     FM080300 VRB03KT P6SM FEW120
     FM081800 23009KT P6SM BKN100=



000
FTUS45 KFGZ 072340
TAFPGA
TAF
KPGA 072340Z 0800/0824 VRB03KT P6SM BKN150
     FM080300 VRB03KT P6SM FEW150=



000
FTUS45 KFGZ 072340
TAFFLG
TAF
KFLG 072340Z 0800/0824 23010KT P6SM VCTS SCT100CB
      TEMPO 0800/0802 5SM -TSRA FEW045 BKN080CB
     FM080300 VRB03KT P6SM FEW120
     FM081800 23009KT P6SM BKN100=



000
FTUS45 KFGZ 072250 AAA
TAFFLG
TAF AMD
KFLG 072250Z 0723/0818 23010KT P6SM VCSH BKN080
      TEMPO 0723/0802 5SM -TSRA FEW045 BKN060CB
     FM080300 VRB03KT P6SM FEW120=



000
FTUS45 KFGZ 072200 AAA
TAFINW
TAF AMD
KINW 072200Z 0722/0818 25013KT P6SM SCT110
      TEMPO 0722/0724 VRB20G30KT TSRA BKN100CB
     FM080300 26008KT P6SM FEW120=



000
FTUS45 KFGZ 071724
TAFFLG
TAF
KFLG 071724Z 0718/0818 23010KT P6SM VCSH SCT100
      TEMPO 0719/0723 5SM -TSRA FEW045 BKN080CB
     FM080300 VRB03KT P6SM FEW120=



000
FTUS45 KFGZ 071724
TAFPGA
TAF
KPGA 071724Z 0718/0818 VRB03KT P6SM BKN150
      TEMPO 0718/0720 -SHRA BKN080
     FM072000 30008KT P6SM SCT120
      TEMPO 0720/0724 -TSRA BKN100CB
     FM080300 VRB03KT P6SM FEW150=



000
FTUS45 KFGZ 071724
TAFINW
TAF
KINW 071724Z 0718/0818 25013KT P6SM SCT110
      TEMPO 0720/0724 -TSRA BKN100CB
     FM080300 26008KT P6SM FEW120=



000
FTUS45 KFGZ 071632 AAA
TAFPGA
TAF AMD
KPGA 071632Z 0717/0812 VRB03KT P6SM BKN150
      TEMPO 0717/0720 -SHRA BKN080
     FM072000 30008KT P6SM SCT120
      TEMPO 0720/0724 -TSRA BKN100CB
     FM080300 VRB03KT P6SM FEW150=



000
FTUS45 KFGZ 071632 AAA
TAFPGA
TAF AMD
KPGA 071632Z 0717/0812 VRB03KT P6SM BKN150
      TEMPO 0717/0720 -SHRA BKN080
     FM072000 30008KT P6SM SCT120
      TEMPO 0720/0724 -TSRA BKN100CB
     FM080300 VRB03KT P6SM FEW150=



000
FTUS45 KFGZ 071133
TAFINW
TAF
KINW 071133Z 0712/0812 VRB06KT P6SM FEW110
     FM071800 25013KT P6SM SCT110
      TEMPO 0720/0724 -TSRA BKN100CB
     FM080300 26008KT P6SM FEW120=



000
FTUS45 KFGZ 071133
TAFPGA
TAF
KPGA 071133Z 0712/0812 VRB03KT P6SM FEW120
     FM071800 33008KT P6SM SCT120
      TEMPO 0720/0724 -TSRA BKN100CB
     FM080300 VRB03KT P6SM FEW150=



000
FTUS45 KFGZ 071133
TAFFLG
TAF
KFLG 071133Z 0712/0812 VRB03KT P6SM FEW120
     FM071700 23010KT P6SM SCT100
      TEMPO 0719/0722 5SM -TSRA FEW045 BKN080CB
     FM080300 VRB03KT P6SM FEW120=



000
FTUS45 KFGZ 070526
TAFINW
TAF
KINW 070526Z 0706/0806 VRB06KT P6SM SCT150
     FM071800 25013KT P6SM SCT120 PROB30 0720/0724 -TSRA BKN080CB
     FM080300 29008KT P6SM FEW080 SCT130=



000
FTUS45 KFGZ 070526
TAFPGA
TAF
KPGA 070526Z 0706/0806 VRB03KT P6SM FEW150
     FM071800 33008KT P6SM SCT120 PROB30 0720/0724 -TSRA BKN080CB
     FM080300 VRB03KT P6SM FEW090 SCT150=



000
FTUS45 KFGZ 070526
TAFFLG
TAF
KFLG 070526Z 0706/0806 VRB03KT P6SM FEW120
     FM071700 23010KT P6SM SCT100 PROB30 0719/0723 5SM TSRA FEW045
      BKN070CB
     FM080300 VRB03KT P6SM FEW070 SCT120=



000
FTUS45 KFGZ 070526
TAFPGA
TAF
KPGA 070526Z 0706/0806 VRB03KT P6SM FEW150
     FM071800 33008KT P6SM SCT120 PROB30 0720/0724 -TSRA BKN080CB
     FM080300 VRB03KT P6SM FEW090 SCT150=



000
FTUS45 KFGZ 070526
TAFFLG
TAF
KFLG 070526Z 0706/0806 VRB03KT P6SM FEW120
     FM071700 23010KT P6SM SCT100 PROB30 0719/0723 5SM TSRA FEW045
      BKN070CB
     FM080300 VRB03KT P6SM FEW070 SCT120=



000
FTUS45 KFGZ 070526
TAFINW
TAF
KINW 070526Z 0706/0806 VRB06KT P6SM SCT150
     FM071800 25013KT P6SM SCT120 PROB30 0720/0724 -TSRA BKN080CB
     FM080300 29008KT P6SM FEW080 SCT130=



000
FTUS45 KFGZ 062331
TAFFLG
TAF
KFLG 062331Z 0700/0724 23011KT P6SM SCT070 BKN100
      TEMPO 0700/0702 VRB15G25KT 5SM -TSRA BKN060CB
     FM070300 VRB03KT P6SM FEW070 BKN120
     FM071600 VRB02KT P6SM SCT120
      TEMPO 0719/0723 TSRA BKN070CB=



000
FTUS45 KFGZ 062331
TAFINW
TAF
KINW 062331Z 0700/0724 26010KT P6SM SCT080 BKN120
     FM070300 13008KT P6SM SCT200
     FM071600 VRB02KT P6SM SCT120 PROB30 0720/0724 -TSRA BKN080CB=



000
FTUS45 KFGZ 062331
TAFPGA
TAF
KPGA 062331Z 0700/0724 36006KT P6SM SCT090 BKN140
     FM070300 VRB03KT P6SM SCT120
     FM071800 VRB02KT P6SM SCT120 PROB30 0720/0724 -TSRA BKN080CB=



000
FTUS45 KFGZ 062146 AAA
TAFFLG
TAF AMD
KFLG 062146Z 0622/0718 23011KT P6SM SCT070 BKN100
      TEMPO 0622/0702 VRB15G25KT 5SM -TSRA BKN060CB
     FM070300 VRB03KT P6SM FEW070 BKN120
     FM070600 VRB02KT P6SM SCT120=



000
FTUS45 KFGZ 061734
TAFFLG
TAF
KFLG 061734Z 0618/0718 23011KT P6SM SCT070 BKN100
      TEMPO 0619/0623 5SM -TSRA BKN060CB
     FM070300 VRB03KT P6SM FEW070 BKN120
     FM070600 VRB02KT P6SM SCT120=



000
FTUS45 KFGZ 061734
TAFINW
TAF
KINW 061734Z 0618/0718 32010KT P6SM SCT080 BKN120
      TEMPO 0620/0624 VRB15G30KT 6SM TSRA BKN080CB
     FM070300 24008KT P6SM FEW070 BKN120=



000
FTUS45 KFGZ 061734
TAFPGA
TAF
KPGA 061734Z 0618/0718 VRB05KT P6SM BKN100
     FM061900 34006KT P6SM SCT090 BKN140
     FM070300 VRB03KT P6SM BKN120=



000
FTUS45 KFGZ 061135
TAFINW
TAF
KINW 061135Z 0612/0712 24008KT P6SM SCT080 SCT120
     FM061800 26012KT P6SM SCT080 BKN120
      TEMPO 0620/0624 VRB15G30KT 6SM TSRA BKN080CB
     FM070300 24008KT P6SM FEW070 BKN120=



000
FTUS45 KFGZ 061135
TAFFLG
TAF
KFLG 061135Z 0612/0712 VRB06KT P6SM SCT060 BKN100
      TEMPO 0612/0614 -SHRA BKN060
     FM061800 23011KT P6SM SCT070 BKN110
      TEMPO 0619/0623 5SM -TSRA BKN060CB
     FM070300 VRB03KT P6SM FEW070 BKN120
     FM070600 VRB02KT P6SM SCT120=



000
FTUS45 KFGZ 061135
TAFPGA
TAF
KPGA 061135Z 0612/0712 VRB05KT P6SM BKN100
     FM061900 34006KT P6SM SCT090 BKN140
     FM070300 VRB03KT P6SM BKN120=



000
FTUS45 KFGZ 061135
TAFFLG
TAF
KFLG 061135Z 0612/0712 VRB06KT P6SM SCT060 BKN100
      TEMPO 0612/0614 -SHRA BKN060
     FM061800 23011KT P6SM SCT070 BKN110
      TEMPO 0619/0623 5SM -TSRA BKN060CB
     FM070300 VRB03KT P6SM FEW070 BKN120
     FM070600 VRB02KT P6SM SCT120=



000
FTUS45 KFGZ 061135
TAFINW
TAF
KINW 061135Z 0612/0712 24008KT P6SM SCT080 SCT120
     FM061800 26012KT P6SM SCT080 BKN120
      TEMPO 0620/0624 VRB15G30KT 6SM TSRA BKN080CB
     FM070300 24008KT P6SM FEW070 BKN120=



000
FTUS45 KFGZ 061135
TAFPGA
TAF
KPGA 061135Z 0612/0712 VRB05KT P6SM BKN100
     FM061900 34006KT P6SM SCT090 BKN140
     FM070300 VRB03KT P6SM BKN120=



000
FTUS45 KFGZ 060541
TAFFLG
TAF
KFLG 060541Z 0606/0706 VRB06KT P6SM SCT060 BKN110
      TEMPO 0606/0609 SHRA BKN050
     FM061800 23011KT P6SM SCT070 BKN110 PROB30 0619/0701 5SM TSRA
      BKN060CB
     FM070300 VRB03KT P6SM FEW070 SCT120=



000
FTUS45 KFGZ 060541
TAFPGA
TAF
KPGA 060541Z 0606/0706 VRB05KT P6SM BKN100
     FM061900 34006KT P6SM SCT090 BKN140
     FM070300 VRB03KT P6SM SCT120=



000
FTUS45 KFGZ 060541
TAFINW
TAF
KINW 060541Z 0606/0706 24008KT P6SM SCT080 BKN120
     FM061800 26012KT P6SM SCT080 BKN120 PROB30 0621/0702 VRB15G30KT
      6SM TSRA BKN080CB
     FM070300 24008KT P6SM FEW070 BKN120=



000
FTUS45 KFGZ 060541
TAFPGA
TAF
KPGA 060541Z 0606/0706 VRB05KT P6SM BKN100
     FM061900 34006KT P6SM SCT090 BKN140
     FM070300 VRB03KT P6SM SCT120=



000
FTUS45 KFGZ 060541
TAFFLG
TAF
KFLG 060541Z 0606/0706 VRB06KT P6SM SCT060 BKN110
      TEMPO 0606/0609 SHRA BKN050
     FM061800 23011KT P6SM SCT070 BKN110 PROB30 0619/0701 5SM TSRA
      BKN060CB
     FM070300 VRB03KT P6SM FEW070 SCT120=



000
FTUS45 KFGZ 060541
TAFINW
TAF
KINW 060541Z 0606/0706 24008KT P6SM SCT080 BKN120
     FM061800 26012KT P6SM SCT080 BKN120 PROB30 0621/0702 VRB15G30KT
      6SM TSRA BKN080CB
     FM070300 24008KT P6SM FEW070 BKN120=



000
FTUS45 KFGZ 060445 AAA
TAFFLG
TAF AMD
KFLG 060445Z 0605/0624 VRB06KT P6SM VCSH SCT050 BKN110
      TEMPO 0605/0609 SHRA BKN050
     FM061800 23011KT P6SM SCT070 BKN110 PROB30 0619/0623 TSRA
      BKN060CB=



000
FTUS45 KFGZ 052345
TAFFLG
TAF
KFLG 052345Z 0600/0624 VRB06KT P6SM VCSH SCT050 BKN110
      TEMPO 0601/0604 SHRA BKN050
     FM060400 24008KT P6SM SCT060 BKN100
     FM061800 23011KT P6SM SCT070 BKN110 PROB30 0619/0623 TSRA
      BKN060CB=



000
FTUS45 KFGZ 052345
TAFPGA
TAF
KPGA 052345Z 0600/0624 25009KT P6SM VCSH SCT100 BKN140
     FM060400 VRB03KT P6SM BKN100
     FM061900 34006KT P6SM SCT090 BKN140=



000
FTUS45 KFGZ 052345
TAFINW
TAF
KINW 052345Z 0600/0624 23012G18KT P6SM VCSH SCT080 OVC110
      TEMPO 0600/0604 RA BKN070
     FM060400 25010KT P6SM SCT080 BKN120
     FM061800 26012KT P6SM SCT080 BKN120 PROB30 0621/0624 VRB15G30KT
      TSRA BKN080CB=



000
FTUS45 KFGZ 052048 AAB
TAFINW
TAF AMD
KINW 052048Z 0521/0618 26011KT P6SM VCTS SCT080CB BKN110
      TEMPO 0521/0601 VRB15G32KT TSRA BKN060CB
     FM060200 25010KT P6SM SCT080 BKN120
     FM060400 26009KT P6SM SCT080 BKN120=



000
FTUS45 KFGZ 052020 AAA
TAFINW
TAF AMD
KINW 052020Z 0520/0618 26011KT P6SM VCTS SCT080CB BKN110
      TEMPO 0522/0602 VRB15G32KT TSRA BKN060CB
     FM060200 25010KT P6SM SCT080 BKN120
     FM060400 26009KT P6SM SCT080 BKN120=



000
FTUS45 KFGZ 052020 AAA
TAFINW
TAF AMD
KINW 052020Z 0520/0618 26011KT P6SM VCTS SCT080CB BKN110
      TEMPO 0522/0602 VRB15G32KT TSRA BKN060CB
     FM060200 25010KT P6SM SCT080 BKN120
     FM060400 26009KT P6SM SCT080 BKN120=



000
FTUS45 KFGZ 051720
TAFINW
TAF
KINW 051720Z 0518/0618 22008KT P6SM VCSH BKN080 BKN120
     FM052100 26012KT P6SM SCT080 BKN110
      TEMPO 0522/0602 VRB15G30KT TSRA BKN060CB
     FM060400 26009KT P6SM SCT080 BKN120=



000
FTUS45 KFGZ 051720
TAFINW
TAF
KINW 051720Z 0518/0618 22008KT P6SM VCSH BKN080 BKN120
     FM052100 26012KT P6SM SCT080 BKN110
      TEMPO 0522/0602 VRB15G30KT TSRA BKN060CB
     FM060400 26009KT P6SM SCT080 BKN120=



000
FTUS45 KFGZ 051720
TAFPGA
TAF
KPGA 051720Z 0518/0618 VRB05KT P6SM SCT120
     FM051900 25006KT P6SM SCT100 SCT140
     FM060200 VRB03KT P6SM BKN100=



000
FTUS45 KFGZ 051720
TAFFLG
TAF
KFLG 051720Z 0518/0618 24012KT P6SM VCTS SCT050CB BKN090
      TEMPO 0519/0523 VRB15G25KT 5SM TSRA BKN050CB
     FM060000 24008KT P6SM SCT060 BKN100=



000
FTUS45 KFGZ 051720
TAFFLG
TAF
KFLG 051720Z 0518/0618 24012KT P6SM VCTS SCT050CB BKN090
      TEMPO 0519/0523 VRB15G25KT 5SM TSRA BKN050CB
     FM060000 24008KT P6SM SCT060 BKN100=



000
FTUS45 KFGZ 051137
TAFFLG
TAF
KFLG 051137Z 0512/0612 VRB04KT P6SM VCSH SCT080 BKN110
      TEMPO 0512/0514 -SHRA BKN080
     FM051500 VRB05KT P6SM SCT080 BKN110
     FM051930 23008KT P6SM VCTS SCT080CB BKN100
      TEMPO 0520/0523 VRB15G25KT 5SM TSRA BKN070CB=



000
FTUS45 KFGZ 051137
TAFPGA
TAF
KPGA 051137Z 0512/0612 VRB05KT P6SM BKN110
     FM051900 25006KT P6SM SCT080 BKN110
     FM060200 VRB03KT P6SM BKN100=



000
FTUS45 KFGZ 051137
TAFINW
TAF
KINW 051137Z 0512/0612 12006KT P6SM BKN110
     FM051800 24011KT P6SM SCT080 BKN110
     FM060400 26009KT P6SM SCT080 BKN120=



000
FTUS45 KFGZ 051137
TAFPGA
TAF
KPGA 051137Z 0512/0612 VRB05KT P6SM BKN110
     FM051900 25006KT P6SM SCT080 BKN110
     FM060200 VRB03KT P6SM BKN100=



000
FTUS45 KFGZ 051137
TAFFLG
TAF
KFLG 051137Z 0512/0612 VRB04KT P6SM VCSH SCT080 BKN110
      TEMPO 0512/0514 -SHRA BKN080
     FM051500 VRB05KT P6SM SCT080 BKN110
     FM051930 23008KT P6SM VCTS SCT080CB BKN100
      TEMPO 0520/0523 VRB15G25KT 5SM TSRA BKN070CB=



000
FTUS45 KFGZ 051137
TAFINW
TAF
KINW 051137Z 0512/0612 12006KT P6SM BKN110
     FM051800 24011KT P6SM SCT080 BKN110
     FM060400 26009KT P6SM SCT080 BKN120=



    US Dept of Commerce
    National Oceanic and Atmospheric Administration
    National Weather Service
    1325 East West Highway
    Silver Spring, MD 20910
    Page Author: NWS Internet Services Team
Disclaimer
Information Quality
Credits
Glossary
Privacy Policy
Freedom of Information Act (FOIA)
About Us
Career Opportunities